Flight Track Log - Related Links

Times and Time Zones

All times are in EDT time to prevent confusion due to time zone crossing. See the LXJ437 flight status page for this flight to view local times or setup timezone preferences in your user account.

Time Position Orientation Groundspeed Altitude Reporting Facility
EDT Latitude Longitude Course Direction KTS MPH feet Rate Location/Type
Sat 02:04:43 PM 33.6553 -117.8819 192° South 164 189 1,400  Level Los Angeles Center
Sat 02:05:45 PM 33.6025 -117.8956 192° South 207 238 3,800 2,226 Climbing Los Angeles Center
Sat 02:06:47 PM 33.5297 -117.8756 167° South 270 311 6,000 2,903 Climbing Los Angeles Center
Sat 02:07:49 PM 33.4553 -117.8283 152° Southeast 294 338 9,800 3,484 Climbing Los Angeles Center
Sat 02:08:51 PM 33.3719 -117.7744 152° Southeast 317 365 13,200 3,000 Climbing Los Angeles Center
Sat 02:09:53 PM 33.2550 -117.6992 152° Southeast 373 429 16,000 2,516 Climbing Los Angeles Center
Sat 02:10:55 PM 33.1642 -117.6119 141° Southeast 403 464 18,400 1,488 Climbing Los Angeles Center
Sat 02:11:58 PM 33.0764 -117.5139 137° Southeast 423 487 19,100 1,536 Climbing Los Angeles Center
Sat 02:13:00 PM 32.9856 -117.4172 138° Southeast 431 496 21,600 1,790 Climbing Los Angeles Center
Sat 02:14:02 PM 32.8917 -117.3183 138° Southeast 441 507 22,800 677 Climbing Los Angeles Center
Sat 02:15:04 PM 32.7772 -117.2028 140° Southeast 451 519 23,000 97 Climbing Los Angeles Center
Sat 02:16:06 PM 32.6828 -117.1039 139° Southeast 448 516 23,000  Level Los Angeles Center
Sat 02:17:08 PM 32.5892 -117.0056 138° Southeast 451 519 23,000  Level Los Angeles Center
Sat 02:19:00 PM 32.4821 -116.8992 151° Southeast  Level FlightAware Approximate
Sat 02:26:00 PM 32.0240 -116.5993 151° Southeast  Level FlightAware Approximate
Sat 02:27:00 PM 31.9634 -116.5484 157° South  Level FlightAware Approximate
Sat 02:28:00 PM 31.8978 -116.5067 148° Southeast  Level FlightAware Approximate
Sat 02:29:00 PM 31.8329 -116.4630 153° Southeast  Level FlightAware Approximate
Sat 02:30:00 PM 31.7833 -116.4333 153° Southeast  Level FlightAware Approximate
Sat 02:31:00 PM 31.7895 -116.5210 153° Southeast  Level Estimated
Sat 02:32:00 PM 31.7833 -116.4333 153° Southeast  Level FlightAware Approximate
Sat 02:33:00 PM 31.7895 -116.5210 153° Southeast  Level Estimated
Sat 02:34:00 PM 31.7833 -116.4333 153° Southeast  Level FlightAware Approximate
Sat 02:35:00 PM 31.7895 -116.5210 153° Southeast  Level Estimated
Sat 02:36:00 PM 31.7833 -116.4333 153° Southeast  Level FlightAware Approximate
Sat 02:37:00 PM 31.7895 -116.5210 153° Southeast  Level Estimated
Sat 02:38:00 PM 31.7833 -116.4333 153° Southeast  Level FlightAware Approximate
Sat 02:39:00 PM 31.7895 -116.5210 153° Southeast  Level Estimated
Sat 02:40:00 PM 31.7833 -116.4333 153° Southeast  Level FlightAware Approximate
Sat 02:41:00 PM 31.7895 -116.5210 153° Southeast  Level Estimated
Sat 02:42:00 PM 31.7833 -116.4333 153° Southeast  Level FlightAware Approximate
Sat 02:43:00 PM 31.7895 -116.5210 153° Southeast  Level Estimated
Sat 02:44:00 PM 31.7833 -116.4333 153° Southeast  Level FlightAware Approximate
Sat 02:45:00 PM 31.7895 -116.5210 153° Southeast  Level Estimated
Sat 02:46:00 PM 31.7833 -116.4333 153° Southeast  Level FlightAware Approximate
Sat 02:47:00 PM 31.7895 -116.5210 153° Southeast  Level Estimated
Sat 02:48:00 PM 31.7833 -116.4333 153° Southeast  Level FlightAware Approximate
Sat 02:49:00 PM 31.7895 -116.5210 153° Southeast  Level Estimated
Sat 02:50:00 PM 31.7833 -116.4333 153° Southeast  Level FlightAware Approximate
Sat 02:51:00 PM 31.7895 -116.5210 153° Southeast  Level Estimated

Login

Don't have an account? Register now (free) for customized features, flight alerts, and more!